sensor_id;sensor_type;location;lat;lon;timestamp;P1;durP1;ratioP1;P2;durP2;ratioP2
24663;SDS011;12791;50.992;13.788;2023-04-01T00:00:54;2.00;;;0.52;;
24663;SDS011;12791;50.992;13.788;2023-04-01T00:03:23;0.50;;;0.40;;
24663;SDS011;12791;50.992;13.788;2023-04-01T00:05:51;2.97;;;0.60;;
24663;SDS011;12791;50.992;13.788;2023-04-01T00:08:18;1.30;;;0.50;;
24663;SDS011;12791;50.992;13.788;2023-04-01T00:10:45;2.05;;;0.70;;
24663;SDS011;12791;50.992;13.788;2023-04-01T00:13:12;1.15;;;0.47;;
24663;SDS011;12791;50.992;13.788;2023-04-01T00:15:39;0.88;;;0.50;;
24663;SDS011;12791;50.992;13.788;2023-04-01T00:18:06;2.95;;;0.50;;
24663;SDS011;12791;50.992;13.788;2023-04-01T00:20:35;4.50;;;0.68;;
24663;SDS011;12791;50.992;13.788;2023-04-01T00:23:02;1.65;;;0.43;;
24663;SDS011;12791;50.992;13.788;2023-04-01T00:25:30;3.22;;;0.40;;
24663;SDS011;12791;50.992;13.788;2023-04-01T00:27:57;1.48;;;0.43;;
24663;SDS011;12791;50.992;13.788;2023-04-01T00:30:23;1.63;;;0.40;;
24663;SDS011;12791;50.992;13.788;2023-04-01T00:32:51;0.57;;;0.40;;
24663;SDS011;12791;50.992;13.788;2023-04-01T00:35:17;2.00;;;0.70;;
24663;SDS011;12791;50.992;13.788;2023-04-01T00:37:45;1.65;;;0.60;;
24663;SDS011;12791;50.992;13.788;2023-04-01T00:40:20;2.70;;;0.52;;
24663;SDS011;12791;50.992;13.788;2023-04-01T00:42:50;1.02;;;0.40;;
24663;SDS011;12791;50.992;13.788;2023-04-01T00:45:27;2.28;;;0.63;;
24663;SDS011;12791;50.992;13.788;2023-04-01T00:47:59;1.10;;;0.52;;
24663;SDS011;12791;50.992;13.788;2023-04-01T00:50:30;2.65;;;0.50;;
24663;SDS011;12791;50.992;13.788;2023-04-01T00:53:00;0.95;;;0.32;;
24663;SDS011;12791;50.992;13.788;2023-04-01T00:55:29;2.05;;;0.60;;
24663;SDS011;12791;50.992;13.788;2023-04-01T00:57:58;1.90;;;0.50;;
24663;SDS011;12791;50.992;13.788;2023-04-01T01:00:28;1.88;;;0.52;;
24663;SDS011;12791;50.992;13.788;2023-04-01T01:02:54;0.60;;;0.50;;
24663;SDS011;12791;50.992;13.788;2023-04-01T01:05:22;1.67;;;0.50;;
24663;SDS011;12791;50.992;13.788;2023-04-01T01:07:56;2.92;;;0.85;;
24663;SDS011;12791;50.992;13.788;2023-04-01T01:10:32;0.93;;;0.30;;
24663;SDS011;12791;50.992;13.788;2023-04-01T01:13:03;1.17;;;0.40;;
24663;SDS011;12791;50.992;13.788;2023-04-01T01:15:36;1.98;;;0.50;;
24663;SDS011;12791;50.992;13.788;2023-04-01T01:18:09;1.90;;;0.50;;
24663;SDS011;12791;50.992;13.788;2023-04-01T01:20:46;1.90;;;0.50;;
24663;SDS011;12791;50.992;13.788;2023-04-01T01:26:45;0.85;;;0.40;;
24663;SDS011;12791;50.992;13.788;2023-04-01T01:29:32;0.98;;;0.60;;
24663;SDS011;12791;50.992;13.788;2023-04-01T01:32:23;1.73;;;0.40;;
24663;SDS011;12791;50.992;13.788;2023-04-01T01:35:09;1.30;;;0.45;;
24663;SDS011;12791;50.992;13.788;2023-04-01T01:37:42;0.52;;;0.32;;
24663;SDS011;12791;50.992;13.788;2023-04-01T01:40:12;1.80;;;0.30;;
24663;SDS011;12791;50.992;13.788;2023-04-01T01:42:41;0.68;;;0.47;;
24663;SDS011;12791;50.992;13.788;2023-04-01T01:45:12;1.73;;;0.57;;
24663;SDS011;12791;50.992;13.788;2023-04-01T01:47:42;3.63;;;1.10;;
24663;SDS011;12791;50.992;13.788;2023-04-01T01:50:12;4.65;;;0.55;;
24663;SDS011;12791;50.992;13.788;2023-04-01T01:52:41;1.75;;;0.50;;
24663;SDS011;12791;50.992;13.788;2023-04-01T01:55:22;2.55;;;0.40;;
24663;SDS011;12791;50.992;13.788;2023-04-01T01:57:52;1.60;;;0.40;;
24663;SDS011;12791;50.992;13.788;2023-04-01T02:00:19;1.90;;;0.40;;
24663;SDS011;12791;50.992;13.788;2023-04-01T02:02:47;3.08;;;0.55;;
24663;SDS011;12791;50.992;13.788;2023-04-01T02:05:17;2.15;;;0.30;;
24663;SDS011;12791;50.992;13.788;2023-04-01T02:07:48;1.30;;;0.50;;
24663;SDS011;12791;50.992;13.788;2023-04-01T02:10:19;3.03;;;0.60;;
24663;SDS011;12791;50.992;13.788;2023-04-01T02:12:48;3.17;;;0.50;;
24663;SDS011;12791;50.992;13.788;2023-04-01T02:15:16;0.77;;;0.40;;
24663;SDS011;12791;50.992;13.788;2023-04-01T02:17:45;2.40;;;0.50;;
24663;SDS011;12791;50.992;13.788;2023-04-01T02:20:15;2.22;;;0.43;;
24663;SDS011;12791;50.992;13.788;2023-04-01T02:22:47;1.00;;;0.22;;
24663;SDS011;12791;50.992;13.788;2023-04-01T02:25:16;0.63;;;0.32;;
24663;SDS011;12791;50.992;13.788;2023-04-01T02:27:46;3.03;;;0.40;;
24663;SDS011;12791;50.992;13.788;2023-04-01T02:30:13;1.23;;;0.40;;
24663;SDS011;12791;50.992;13.788;2023-04-01T02:32:41;2.03;;;0.40;;
24663;SDS011;12791;50.992;13.788;2023-04-01T02:35:09;1.45;;;0.40;;
24663;SDS011;12791;50.992;13.788;2023-04-01T02:37:39;1.38;;;0.40;;
24663;SDS011;12791;50.992;13.788;2023-04-01T02:40:08;2.22;;;0.40;;
24663;SDS011;12791;50.992;13.788;2023-04-01T02:42:37;2.38;;;0.40;;
24663;SDS011;12791;50.992;13.788;2023-04-01T02:45:04;3.05;;;0.60;;
24663;SDS011;12791;50.992;13.788;2023-04-01T02:47:32;4.28;;;0.47;;
24663;SDS011;12791;50.992;13.788;2023-04-01T02:49:59;2.47;;;0.50;;
24663;SDS011;12791;50.992;13.788;2023-04-01T02:52:25;2.75;;;0.90;;
24663;SDS011;12791;50.992;13.788;2023-04-01T02:54:54;2.85;;;0.40;;
24663;SDS011;12791;50.992;13.788;2023-04-01T02:57:22;3.38;;;0.70;;
24663;SDS011;12791;50.992;13.788;2023-04-01T02:59:49;2.08;;;0.50;;
24663;SDS011;12791;50.992;13.788;2023-04-01T03:02:16;0.95;;;0.40;;
24663;SDS011;12791;50.992;13.788;2023-04-01T03:04:43;0.82;;;0.40;;
24663;SDS011;12791;50.992;13.788;2023-04-01T03:07:10;1.88;;;0.40;;
24663;SDS011;12791;50.992;13.788;2023-04-01T03:09:37;3.00;;;0.60;;
24663;SDS011;12791;50.992;13.788;2023-04-01T03:12:06;2.22;;;0.50;;
24663;SDS011;12791;50.992;13.788;2023-04-01T03:14:33;1.45;;;0.50;;
24663;SDS011;12791;50.992;13.788;2023-04-01T03:16:59;2.03;;;0.30;;
24663;SDS011;12791;50.992;13.788;2023-04-01T03:19:26;4.13;;;0.50;;
24663;SDS011;12791;50.992;13.788;2023-04-01T03:21:53;2.28;;;0.43;;
24663;SDS011;12791;50.992;13.788;2023-04-01T03:24:19;2.13;;;0.65;;
24663;SDS011;12791;50.992;13.788;2023-04-01T03:26:46;2.72;;;0.68;;
24663;SDS011;12791;50.992;13.788;2023-04-01T03:29:14;2.90;;;0.70;;
24663;SDS011;12791;50.992;13.788;2023-04-01T03:31:41;3.88;;;0.50;;
24663;SDS011;12791;50.992;13.788;2023-04-01T03:34:08;2.17;;;0.50;;
24663;SDS011;12791;50.992;13.788;2023-04-01T03:36:35;4.63;;;0.55;;
24663;SDS011;12791;50.992;13.788;2023-04-01T03:39:01;1.02;;;0.50;;
24663;SDS011;12791;50.992;13.788;2023-04-01T03:41:29;2.13;;;0.65;;
24663;SDS011;12791;50.992;13.788;2023-04-01T03:43:56;3.00;;;0.50;;
24663;SDS011;12791;50.992;13.788;2023-04-01T03:46:24;1.08;;;0.30;;
24663;SDS011;12791;50.992;13.788;2023-04-01T03:48:51;5.07;;;0.52;;
24663;SDS011;12791;50.992;13.788;2023-04-01T03:51:17;2.20;;;0.40;;
24663;SDS011;12791;50.992;13.788;2023-04-01T03:53:44;1.58;;;0.57;;
24663;SDS011;12791;50.992;13.788;2023-04-01T03:56:11;1.23;;;0.30;;
24663;SDS011;12791;50.992;13.788;2023-04-01T03:58:37;2.47;;;0.60;;
24663;SDS011;12791;50.992;13.788;2023-04-01T04:01:12;1.70;;;0.43;;
24663;SDS011;12791;50.992;13.788;2023-04-01T04:03:41;3.30;;;0.30;;
24663;SDS011;12791;50.992;13.788;2023-04-01T04:06:10;2.17;;;0.40;;
24663;SDS011;12791;50.992;13.788;2023-04-01T04:08:37;1.08;;;0.50;;
24663;SDS011;12791;50.992;13.788;2023-04-01T04:11:04;2.40;;;0.52;;
24663;SDS011;12791;50.992;13.788;2023-04-01T04:13:31;1.13;;;0.50;;
24663;SDS011;12791;50.992;13.788;2023-04-01T04:15:58;1.13;;;0.50;;
24663;SDS011;12791;50.992;13.788;2023-04-01T04:18:24;3.15;;;0.50;;
24663;SDS011;12791;50.992;13.788;2023-04-01T04:20:52;3.22;;;0.52;;
24663;SDS011;12791;50.992;13.788;2023-04-01T04:23:19;1.30;;;0.40;;
24663;SDS011;12791;50.992;13.788;2023-04-01T04:25:52;2.20;;;0.50;;
24663;SDS011;12791;50.992;13.788;2023-04-01T04:28:20;2.15;;;0.40;;
24663;SDS011;12791;50.992;13.788;2023-04-01T04:30:47;3.90;;;0.95;;
24663;SDS011;12791;50.992;13.788;2023-04-01T04:33:13;3.25;;;0.60;;
24663;SDS011;12791;50.992;13.788;2023-04-01T04:35:40;1.10;;;0.40;;
24663;SDS011;12791;50.992;13.788;2023-04-01T04:38:08;2.60;;;0.82;;
24663;SDS011;12791;50.992;13.788;2023-04-01T04:40:35;1.70;;;0.47;;
24663;SDS011;12791;50.992;13.788;2023-04-01T04:43:02;1.80;;;0.50;;
24663;SDS011;12791;50.992;13.788;2023-04-01T04:45:29;2.45;;;0.40;;
24663;SDS011;12791;50.992;13.788;2023-04-01T04:47:56;1.92;;;0.43;;
24663;SDS011;12791;50.992;13.788;2023-04-01T04:50:22;1.85;;;0.50;;
24663;SDS011;12791;50.992;13.788;2023-04-01T04:52:50;0.95;;;0.40;;
24663;SDS011;12791;50.992;13.788;2023-04-01T04:55:18;2.25;;;0.50;;
24663;SDS011;12791;50.992;13.788;2023-04-01T04:57:45;0.40;;;0.32;;
24663;SDS011;12791;50.992;13.788;2023-04-01T05:00:12;1.42;;;0.32;;
24663;SDS011;12791;50.992;13.788;2023-04-01T05:02:39;1.80;;;0.60;;
24663;SDS011;12791;50.992;13.788;2023-04-01T05:05:06;1.92;;;0.20;;
24663;SDS011;12791;50.992;13.788;2023-04-01T05:07:33;1.25;;;0.38;;
24663;SDS011;12791;50.992;13.788;2023-04-01T05:10:00;2.38;;;0.60;;
24663;SDS011;12791;50.992;13.788;2023-04-01T05:12:28;1.45;;;0.30;;
24663;SDS011;12791;50.992;13.788;2023-04-01T05:14:55;1.95;;;0.40;;
24663;SDS011;12791;50.992;13.788;2023-04-01T05:17:22;1.35;;;0.30;;
24663;SDS011;12791;50.992;13.788;2023-04-01T05:19:49;1.52;;;0.38;;
24663;SDS011;12791;50.992;13.788;2023-04-01T05:22:15;3.08;;;0.40;;
24663;SDS011;12791;50.992;13.788;2023-04-01T05:24:42;2.45;;;0.40;;
24663;SDS011;12791;50.992;13.788;2023-04-01T05:27:08;0.75;;;0.40;;
24663;SDS011;12791;50.992;13.788;2023-04-01T05:29:36;1.17;;;0.35;;
24663;SDS011;12791;50.992;13.788;2023-04-01T05:32:03;2.97;;;0.50;;
24663;SDS011;12791;50.992;13.788;2023-04-01T05:34:30;1.60;;;0.40;;
24663;SDS011;12791;50.992;13.788;2023-04-01T05:36:56;2.50;;;0.55;;
24663;SDS011;12791;50.992;13.788;2023-04-01T05:39:23;3.10;;;0.45;;
24663;SDS011;12791;50.992;13.788;2023-04-01T05:41:50;1.45;;;0.35;;
24663;SDS011;12791;50.992;13.788;2023-04-01T05:44:17;2.25;;;0.40;;
24663;SDS011;12791;50.992;13.788;2023-04-01T05:46:45;1.00;;;0.40;;
24663;SDS011;12791;50.992;13.788;2023-04-01T05:49:12;0.82;;;0.38;;
24663;SDS011;12791;50.992;13.788;2023-04-01T05:51:38;2.05;;;0.55;;
24663;SDS011;12791;50.992;13.788;2023-04-01T05:54:05;2.08;;;0.70;;
24663;SDS011;12791;50.992;13.788;2023-04-01T05:56:32;2.65;;;0.40;;
24663;SDS011;12791;50.992;13.788;2023-04-01T05:58:58;1.88;;;0.50;;
24663;SDS011;12791;50.992;13.788;2023-04-01T06:01:25;1.13;;;0.40;;
24663;SDS011;12791;50.992;13.788;2023-04-01T06:03:53;2.25;;;0.50;;
24663;SDS011;12791;50.992;13.788;2023-04-01T06:06:22;0.55;;;0.45;;
24663;SDS011;12791;50.992;13.788;2023-04-01T06:08:50;2.60;;;0.40;;
24663;SDS011;12791;50.992;13.788;2023-04-01T06:11:20;0.70;;;0.47;;
24663;SDS011;12791;50.992;13.788;2023-04-01T06:13:58;0.40;;;0.40;;
24663;SDS011;12791;50.992;13.788;2023-04-01T06:16:39;2.05;;;0.60;;
24663;SDS011;12791;50.992;13.788;2023-04-01T06:19:19;0.82;;;0.40;;
24663;SDS011;12791;50.992;13.788;2023-04-01T06:24:50;1.38;;;0.50;;
24663;SDS011;12791;50.992;13.788;2023-04-01T06:27:36;2.50;;;0.43;;
24663;SDS011;12791;50.992;13.788;2023-04-01T06:30:18;1.40;;;0.40;;
24663;SDS011;12791;50.992;13.788;2023-04-01T06:32:59;0.40;;;0.30;;
24663;SDS011;12791;50.992;13.788;2023-04-01T06:35:42;1.75;;;0.50;;
24663;SDS011;12791;50.992;13.788;2023-04-01T06:41:24;2.30;;;0.40;;
24663;SDS011;12791;50.992;13.788;2023-04-01T06:43:59;1.40;;;0.40;;
24663;SDS011;12791;50.992;13.788;2023-04-01T06:46:43;1.13;;;0.30;;
24663;SDS011;12791;50.992;13.788;2023-04-01T06:49:26;2.72;;;0.65;;
24663;SDS011;12791;50.992;13.788;2023-04-01T06:52:08;2.15;;;0.50;;
24663;SDS011;12791;50.992;13.788;2023-04-01T06:54:46;1.25;;;0.30;;
24663;SDS011;12791;50.992;13.788;2023-04-01T06:57:20;1.17;;;0.40;;
24663;SDS011;12791;50.992;13.788;2023-04-01T06:59:51;1.33;;;0.30;;
24663;SDS011;12791;50.992;13.788;2023-04-01T07:02:22;2.17;;;0.43;;
24663;SDS011;12791;50.992;13.788;2023-04-01T07:04:53;3.30;;;0.32;;
24663;SDS011;12791;50.992;13.788;2023-04-01T07:07:27;0.93;;;0.20;;
24663;SDS011;12791;50.992;13.788;2023-04-01T07:09:59;1.52;;;0.40;;
24663;SDS011;12791;50.992;13.788;2023-04-01T07:12:32;1.35;;;0.50;;
24663;SDS011;12791;50.992;13.788;2023-04-01T07:15:11;2.47;;;0.50;;
24663;SDS011;12791;50.992;13.788;2023-04-01T07:17:43;1.95;;;0.40;;
24663;SDS011;12791;50.992;13.788;2023-04-01T07:20:12;1.17;;;0.32;;
24663;SDS011;12791;50.992;13.788;2023-04-01T07:22:45;2.17;;;0.50;;
24663;SDS011;12791;50.992;13.788;2023-04-01T07:25:14;3.08;;;0.52;;
24663;SDS011;12791;50.992;13.788;2023-04-01T07:27:43;1.92;;;0.52;;
24663;SDS011;12791;50.992;13.788;2023-04-01T07:30:13;0.85;;;0.40;;
24663;SDS011;12791;50.992;13.788;2023-04-01T07:32:42;2.42;;;0.60;;
24663;SDS011;12791;50.992;13.788;2023-04-01T07:35:17;1.33;;;0.30;;
24663;SDS011;12791;50.992;13.788;2023-04-01T07:37:55;2.00;;;0.40;;
24663;SDS011;12791;50.992;13.788;2023-04-01T07:40:31;1.00;;;0.40;;
24663;SDS011;12791;50.992;13.788;2023-04-01T07:43:09;0.80;;;0.28;;
24663;SDS011;12791;50.992;13.788;2023-04-01T07:45:50;1.08;;;0.40;;
24663;SDS011;12791;50.992;13.788;2023-04-01T07:48:30;1.60;;;0.40;;
24663;SDS011;12791;50.992;13.788;2023-04-01T07:51:02;1.08;;;0.30;;
24663;SDS011;12791;50.992;13.788;2023-04-01T07:53:34;0.93;;;0.30;;
24663;SDS011;12791;50.992;13.788;2023-04-01T07:56:05;0.60;;;0.30;;
24663;SDS011;12791;50.992;13.788;2023-04-01T07:58:35;1.50;;;0.50;;
24663;SDS011;12791;50.992;13.788;2023-04-01T08:01:10;1.25;;;0.40;;
24663;SDS011;12791;50.992;13.788;2023-04-01T08:03:47;1.10;;;0.32;;
24663;SDS011;12791;50.992;13.788;2023-04-01T08:06:40;2.70;;;0.40;;
24663;SDS011;12791;50.992;13.788;2023-04-01T08:09:16;0.77;;;0.50;;
24663;SDS011;12791;50.992;13.788;2023-04-01T08:11:52;0.85;;;0.40;;
24663;SDS011;12791;50.992;13.788;2023-04-01T08:14:30;2.28;;;0.40;;
24663;SDS011;12791;50.992;13.788;2023-04-01T08:17:04;0.90;;;0.30;;
24663;SDS011;12791;50.992;13.788;2023-04-01T08:19:40;0.70;;;0.35;;
24663;SDS011;12791;50.992;13.788;2023-04-01T08:22:19;1.67;;;0.30;;
24663;SDS011;12791;50.992;13.788;2023-04-01T08:24:50;0.88;;;0.40;;
24663;SDS011;12791;50.992;13.788;2023-04-01T08:27:21;2.00;;;0.40;;
24663;SDS011;12791;50.992;13.788;2023-04-01T08:29:51;1.17;;;0.28;;
24663;SDS011;12791;50.992;13.788;2023-04-01T08:32:24;0.53;;;0.23;;
24663;SDS011;12791;50.992;13.788;2023-04-01T08:34:58;0.73;;;0.22;;
24663;SDS011;12791;50.992;13.788;2023-04-01T08:37:34;0.43;;;0.30;;
24663;SDS011;12791;50.992;13.788;2023-04-01T08:40:12;0.63;;;0.40;;
24663;SDS011;12791;50.992;13.788;2023-04-01T08:42:58;0.30;;;0.20;;
24663;SDS011;12791;50.992;13.788;2023-04-01T08:45:41;1.77;;;0.40;;
24663;SDS011;12791;50.992;13.788;2023-04-01T08:51:12;0.55;;;0.20;;
24663;SDS011;12791;50.992;13.788;2023-04-01T08:53:56;1.25;;;0.28;;
24663;SDS011;12791;50.992;13.788;2023-04-01T08:56:34;0.88;;;0.20;;
24663;SDS011;12791;50.992;13.788;2023-04-01T08:59:13;0.28;;;0.15;;
24663;SDS011;12791;50.992;13.788;2023-04-01T09:02:11;0.90;;;0.28;;
24663;SDS011;12791;50.992;13.788;2023-04-01T09:07:57;0.80;;;0.20;;
24663;SDS011;12791;50.992;13.788;2023-04-01T09:10:40;3.95;;;0.40;;
24663;SDS011;12791;50.992;13.788;2023-04-01T09:13:28;0.20;;;0.20;;
24663;SDS011;12791;50.992;13.788;2023-04-01T09:19:24;1.33;;;0.30;;
24663;SDS011;12791;50.992;13.788;2023-04-01T09:22:06;0.77;;;0.30;;
24663;SDS011;12791;50.992;13.788;2023-04-01T09:25:02;1.08;;;0.30;;
24663;SDS011;12791;50.992;13.788;2023-04-01T09:27:51;2.25;;;0.20;;
24663;SDS011;12791;50.992;13.788;2023-04-01T09:36:18;1.38;;;0.30;;
24663;SDS011;12791;50.992;13.788;2023-04-01T09:38:55;1.27;;;0.30;;
24663;SDS011;12791;50.992;13.788;2023-04-01T09:41:27;0.77;;;0.20;;
24663;SDS011;12791;50.992;13.788;2023-04-01T09:44:01;0.70;;;0.20;;
24663;SDS011;12791;50.992;13.788;2023-04-01T09:46:37;0.57;;;0.20;;
24663;SDS011;12791;50.992;13.788;2023-04-01T09:49:26;0.50;;;0.20;;
24663;SDS011;12791;50.992;13.788;2023-04-01T09:52:14;0.40;;;0.20;;
24663;SDS011;12791;50.992;13.788;2023-04-01T09:55:06;1.58;;;0.22;;
24663;SDS011;12791;50.992;13.788;2023-04-01T10:03:43;0.57;;;0.22;;
24663;SDS011;12791;50.992;13.788;2023-04-01T10:06:32;3.83;;;0.30;;
24663;SDS011;12791;50.992;13.788;2023-04-01T10:09:30;0.63;;;0.40;;
24663;SDS011;12791;50.992;13.788;2023-04-01T10:12:31;0.35;;;0.20;;
24663;SDS011;12791;50.992;13.788;2023-04-01T10:15:22;0.28;;;0.20;;
24663;SDS011;12791;50.992;13.788;2023-04-01T10:21:35;0.40;;;0.38;;
24663;SDS011;12791;50.992;13.788;2023-04-01T10:39:32;0.25;;;0.20;;
24663;SDS011;12791;50.992;13.788;2023-04-01T10:42:11;0.20;;;0.20;;
24663;SDS011;12791;50.992;13.788;2023-04-01T10:45:21;1.15;;;0.20;;
24663;SDS011;12791;50.992;13.788;2023-04-01T10:51:01;0.47;;;0.25;;
24663;SDS011;12791;50.992;13.788;2023-04-01T10:53:39;1.23;;;0.50;;
24663;SDS011;12791;50.992;13.788;2023-04-01T10:56:25;0.45;;;0.20;;
24663;SDS011;12791;50.992;13.788;2023-04-01T11:05:16;0.30;;;0.10;;
24663;SDS011;12791;50.992;13.788;2023-04-01T11:11:31;1.10;;;0.20;;
24663;SDS011;12791;50.992;13.788;2023-04-01T11:23:50;1.67;;;0.30;;
24663;SDS011;12791;50.992;13.788;2023-04-01T11:26:24;0.43;;;0.20;;
24663;SDS011;12791;50.992;13.788;2023-04-01T11:29:16;0.55;;;0.22;;
24663;SDS011;12791;50.992;13.788;2023-04-01T11:32:06;0.32;;;0.20;;
24663;SDS011;12791;50.992;13.788;2023-04-01T11:34:47;0.15;;;0.15;;
24663;SDS011;12791;50.992;13.788;2023-04-01T11:37:24;0.30;;;0.28;;
24663;SDS011;12791;50.992;13.788;2023-04-01T11:40:05;1.80;;;0.28;;
24663;SDS011;12791;50.992;13.788;2023-04-01T11:42:46;0.10;;;0.10;;
24663;SDS011;12791;50.992;13.788;2023-04-01T11:45:21;2.72;;;0.25;;
24663;SDS011;12791;50.992;13.788;2023-04-01T11:48:03;0.60;;;0.10;;
24663;SDS011;12791;50.992;13.788;2023-04-01T11:50:52;0.15;;;0.10;;
24663;SDS011;12791;50.992;13.788;2023-04-01T11:53:35;1.40;;;0.10;;
24663;SDS011;12791;50.992;13.788;2023-04-01T11:56:10;0.70;;;0.20;;
24663;SDS011;12791;50.992;13.788;2023-04-01T11:58:51;0.75;;;0.20;;
24663;SDS011;12791;50.992;13.788;2023-04-01T12:01:49;0.40;;;0.10;;
24663;SDS011;12791;50.992;13.788;2023-04-01T12:07:50;0.10;;;0.10;;
24663;SDS011;12791;50.992;13.788;2023-04-01T12:10:26;0.20;;;0.10;;
24663;SDS011;12791;50.992;13.788;2023-04-01T12:13:02;0.25;;;0.17;;
24663;SDS011;12791;50.992;13.788;2023-04-01T12:15:43;0.30;;;0.20;;
24663;SDS011;12791;50.992;13.788;2023-04-01T12:18:25;0.70;;;0.20;;
24663;SDS011;12791;50.992;13.788;2023-04-01T12:21:00;0.35;;;0.22;;
24663;SDS011;12791;50.992;13.788;2023-04-01T12:23:45;0.70;;;0.20;;
24663;SDS011;12791;50.992;13.788;2023-04-01T12:26:29;0.63;;;0.30;;
24663;SDS011;12791;50.992;13.788;2023-04-01T12:29:13;3.03;;;0.43;;
24663;SDS011;12791;50.992;13.788;2023-04-01T12:32:03;0.30;;;0.30;;
24663;SDS011;12791;50.992;13.788;2023-04-01T12:34:40;0.30;;;0.20;;
24663;SDS011;12791;50.992;13.788;2023-04-01T12:37:29;0.95;;;0.20;;
24663;SDS011;12791;50.992;13.788;2023-04-01T12:40:14;0.52;;;0.20;;
24663;SDS011;12791;50.992;13.788;2023-04-01T12:43:01;0.30;;;0.20;;
24663;SDS011;12791;50.992;13.788;2023-04-01T12:45:38;0.40;;;0.30;;
24663;SDS011;12791;50.992;13.788;2023-04-01T12:51:24;0.55;;;0.20;;
24663;SDS011;12791;50.992;13.788;2023-04-01T12:54:10;0.75;;;0.20;;
24663;SDS011;12791;50.992;13.788;2023-04-01T12:56:58;0.35;;;0.28;;
24663;SDS011;12791;50.992;13.788;2023-04-01T12:59:41;0.20;;;0.20;;
24663;SDS011;12791;50.992;13.788;2023-04-01T13:02:23;0.20;;;0.20;;
24663;SDS011;12791;50.992;13.788;2023-04-01T13:08:06;0.20;;;0.20;;
24663;SDS011;12791;50.992;13.788;2023-04-01T13:10:57;0.20;;;0.10;;
24663;SDS011;12791;50.992;13.788;2023-04-01T13:13:41;0.47;;;0.17;;
24663;SDS011;12791;50.992;13.788;2023-04-01T13:16:31;0.20;;;0.20;;
24663;SDS011;12791;50.992;13.788;2023-04-01T13:19:04;0.10;;;0.10;;
24663;SDS011;12791;50.992;13.788;2023-04-01T13:21:39;0.10;;;0.10;;
24663;SDS011;12791;50.992;13.788;2023-04-01T13:24:22;0.85;;;0.10;;
24663;SDS011;12791;50.992;13.788;2023-04-01T13:26:58;0.15;;;0.15;;
24663;SDS011;12791;50.992;13.788;2023-04-01T13:29:31;0.22;;;0.13;;
24663;SDS011;12791;50.992;13.788;2023-04-01T13:32:13;0.10;;;0.10;;
24663;SDS011;12791;50.992;13.788;2023-04-01T13:34:52;0.20;;;0.20;;
24663;SDS011;12791;50.992;13.788;2023-04-01T13:37:36;0.20;;;0.10;;
24663;SDS011;12791;50.992;13.788;2023-04-01T13:40:25;0.10;;;0.10;;
24663;SDS011;12791;50.992;13.788;2023-04-01T13:43:08;0.20;;;0.10;;
24663;SDS011;12791;50.992;13.788;2023-04-01T13:45:43;0.20;;;0.20;;
24663;SDS011;12791;50.992;13.788;2023-04-01T13:48:29;0.10;;;0.10;;
24663;SDS011;12791;50.992;13.788;2023-04-01T13:51:12;0.20;;;0.10;;
24663;SDS011;12791;50.992;13.788;2023-04-01T13:53:55;0.30;;;0.10;;
24663;SDS011;12791;50.992;13.788;2023-04-01T13:56:44;0.00;;;0.00;;
24663;SDS011;12791;50.992;13.788;2023-04-01T13:59:31;0.98;;;0.00;;
24663;SDS011;12791;50.992;13.788;2023-04-01T14:02:27;0.10;;;0.10;;
24663;SDS011;12791;50.992;13.788;2023-04-01T14:05:09;0.00;;;0.00;;
24663;SDS011;12791;50.992;13.788;2023-04-01T14:07:56;0.10;;;0.10;;
24663;SDS011;12791;50.992;13.788;2023-04-01T14:10:36;0.10;;;0.10;;
24663;SDS011;12791;50.992;13.788;2023-04-01T14:13:12;0.10;;;0.10;;
24663;SDS011;12791;50.992;13.788;2023-04-01T14:15:52;0.20;;;0.20;;
24663;SDS011;12791;50.992;13.788;2023-04-01T14:18:39;0.38;;;0.10;;
24663;SDS011;12791;50.992;13.788;2023-04-01T14:21:17;0.75;;;0.40;;
24663;SDS011;12791;50.992;13.788;2023-04-01T14:29:45;0.10;;;0.10;;
24663;SDS011;12791;50.992;13.788;2023-04-01T14:32:21;0.20;;;0.20;;
24663;SDS011;12791;50.992;13.788;2023-04-01T14:35:05;0.10;;;0.10;;
24663;SDS011;12791;50.992;13.788;2023-04-01T14:40:54;0.10;;;0.10;;
24663;SDS011;12791;50.992;13.788;2023-04-01T14:43:34;0.17;;;0.17;;
24663;SDS011;12791;50.992;13.788;2023-04-01T14:49:30;0.20;;;0.20;;
24663;SDS011;12791;50.992;13.788;2023-04-01T14:52:04;0.28;;;0.20;;
24663;SDS011;12791;50.992;13.788;2023-04-01T14:54:36;0.28;;;0.20;;
24663;SDS011;12791;50.992;13.788;2023-04-01T14:57:10;0.20;;;0.20;;
24663;SDS011;12791;50.992;13.788;2023-04-01T14:59:39;0.15;;;0.13;;
24663;SDS011;12791;50.992;13.788;2023-04-01T15:02:11;0.32;;;0.25;;
24663;SDS011;12791;50.992;13.788;2023-04-01T15:04:57;0.20;;;0.20;;
24663;SDS011;12791;50.992;13.788;2023-04-01T15:10:25;0.20;;;0.20;;
24663;SDS011;12791;50.992;13.788;2023-04-01T15:13:15;0.10;;;0.10;;
24663;SDS011;12791;50.992;13.788;2023-04-01T15:15:51;0.20;;;0.20;;
24663;SDS011;12791;50.992;13.788;2023-04-01T15:18:35;0.10;;;0.10;;
24663;SDS011;12791;50.992;13.788;2023-04-01T15:21:13;0.10;;;0.10;;
24663;SDS011;12791;50.992;13.788;2023-04-01T15:23:46;0.10;;;0.10;;
24663;SDS011;12791;50.992;13.788;2023-04-01T15:26:26;0.15;;;0.10;;
24663;SDS011;12791;50.992;13.788;2023-04-01T15:29:33;0.17;;;0.17;;
24663;SDS011;12791;50.992;13.788;2023-04-01T15:32:10;0.20;;;0.10;;
24663;SDS011;12791;50.992;13.788;2023-04-01T15:34:44;0.20;;;0.20;;
24663;SDS011;12791;50.992;13.788;2023-04-01T15:37:20;0.10;;;0.10;;
24663;SDS011;12791;50.992;13.788;2023-04-01T15:39:59;0.52;;;0.28;;
24663;SDS011;12791;50.992;13.788;2023-04-01T15:42:36;1.30;;;0.28;;
24663;SDS011;12791;50.992;13.788;2023-04-01T15:45:29;0.20;;;0.20;;
24663;SDS011;12791;50.992;13.788;2023-04-01T15:48:02;0.15;;;0.10;;
24663;SDS011;12791;50.992;13.788;2023-04-01T15:50:49;0.20;;;0.20;;
24663;SDS011;12791;50.992;13.788;2023-04-01T15:53:34;0.38;;;0.30;;
24663;SDS011;12791;50.992;13.788;2023-04-01T15:56:10;0.85;;;0.30;;
24663;SDS011;12791;50.992;13.788;2023-04-01T15:58:53;0.25;;;0.25;;
24663;SDS011;12791;50.992;13.788;2023-04-01T16:01:29;0.15;;;0.15;;
24663;SDS011;12791;50.992;13.788;2023-04-01T16:04:11;0.20;;;0.20;;
24663;SDS011;12791;50.992;13.788;2023-04-01T16:07:01;0.20;;;0.20;;
24663;SDS011;12791;50.992;13.788;2023-04-01T16:09:42;0.30;;;0.30;;
24663;SDS011;12791;50.992;13.788;2023-04-01T16:12:17;0.22;;;0.22;;
24663;SDS011;12791;50.992;13.788;2023-04-01T16:14:50;0.30;;;0.30;;
24663;SDS011;12791;50.992;13.788;2023-04-01T16:17:35;0.55;;;0.30;;
24663;SDS011;12791;50.992;13.788;2023-04-01T16:20:18;0.40;;;0.38;;
24663;SDS011;12791;50.992;13.788;2023-04-01T16:22:50;0.30;;;0.20;;
24663;SDS011;12791;50.992;13.788;2023-04-01T16:25:26;0.20;;;0.20;;
24663;SDS011;12791;50.992;13.788;2023-04-01T16:28:03;0.35;;;0.20;;
24663;SDS011;12791;50.992;13.788;2023-04-01T16:30:46;0.20;;;0.20;;
24663;SDS011;12791;50.992;13.788;2023-04-01T16:33:17;0.52;;;0.20;;
24663;SDS011;12791;50.992;13.788;2023-04-01T16:35:50;0.20;;;0.20;;
24663;SDS011;12791;50.992;13.788;2023-04-01T16:38:26;0.30;;;0.30;;
24663;SDS011;12791;50.992;13.788;2023-04-01T16:41:05;0.47;;;0.30;;
24663;SDS011;12791;50.992;13.788;2023-04-01T16:43:38;0.95;;;0.40;;
24663;SDS011;12791;50.992;13.788;2023-04-01T16:46:18;0.28;;;0.28;;
24663;SDS011;12791;50.992;13.788;2023-04-01T16:49:23;0.40;;;0.40;;
24663;SDS011;12791;50.992;13.788;2023-04-01T16:54:44;0.40;;;0.40;;
24663;SDS011;12791;50.992;13.788;2023-04-01T16:57:18;0.45;;;0.35;;
24663;SDS011;12791;50.992;13.788;2023-04-01T16:59:47;0.40;;;0.40;;